Time;durP1;ratioP1;P1;durP2;ratioP2;P2;SDS_P1;SDS_P2;PMS_P1;PMS_P2;Temp;Humidity;BMP_temperature;BMP_pressure;BME280_temperature;BME280_humidity;BME280_pressure;Samples;Min_cycle;Max_cycle;Signal;HPM_P1;HPM_P2
2022/02/16 00:01:23;;;;;;;2.72;1.25;;;8.40;98.40;;;;;;5012289;28;20022;-75
2022/02/16 00:03:48;;;;;;;5.10;1.58;;;8.40;98.70;;;;;;5012346;28;20092;-75
2022/02/16 00:06:14;;;;;;;5.40;1.35;;;8.40;98.40;;;;;;5013178;28;20037;-75
2022/02/16 00:08:40;;;;;;;4.95;1.17;;;8.50;98.50;;;;;;5012226;28;20034;-75
2022/02/16 00:11:06;;;;;;;4.40;1.50;;;8.40;98.50;;;;;;5012296;28;20073;-75
2022/02/16 00:13:31;;;;;;;5.38;1.00;;;8.40;98.70;;;;;;5012018;28;20037;-75
2022/02/16 00:15:57;;;;;;;3.45;1.10;;;8.40;98.70;;;;;;5011949;28;20372;-76
2022/02/16 00:18:23;;;;;;;4.88;1.05;;;8.40;98.60;;;;;;5012274;28;20029;-75
2022/02/16 00:20:49;;;;;;;4.00;1.08;;;8.40;98.60;;;;;;5012180;28;20099;-75
2022/02/16 00:23:14;;;;;;;5.07;1.38;;;8.40;98.60;;;;;;4994615;28;20038;-75
2022/02/16 00:25:40;;;;;;;3.67;1.10;;;8.40;98.60;;;;;;4994498;28;20419;-75
2022/02/16 00:28:06;;;;;;;2.05;0.98;;;8.50;98.60;;;;;;5011740;28;20435;-75
2022/02/16 00:30:31;;;;;;;1.83;0.93;;;8.50;98.70;;;;;;5012007;28;20476;-75
2022/02/16 00:32:57;;;;;;;3.35;1.00;;;8.40;98.60;;;;;;5011560;28;20030;-76
2022/02/16 00:35:23;;;;;;;2.53;1.08;;;8.40;98.70;;;;;;5011640;28;20026;-76
2022/02/16 00:37:51;;;;;;;3.83;1.33;;;8.40;98.70;;;;;;5011835;28;20109;-76
2022/02/16 00:40:16;;;;;;;3.15;1.10;;;8.50;98.60;;;;;;5011626;28;20026;-75
2022/02/16 00:42:42;;;;;;;4.07;1.08;;;8.50;98.70;;;;;;5011333;28;20033;-74
2022/02/16 00:45:08;;;;;;;3.20;0.80;;;8.50;98.70;;;;;;5011981;28;20022;-76
2022/02/16 00:47:35;;;;;;;1.88;0.90;;;8.50;98.70;;;;;;5011407;28;20041;-76
2022/02/16 00:50:00;;;;;;;2.55;1.00;;;8.50;98.70;;;;;;5011544;28;20034;-76
2022/02/16 00:52:26;;;;;;;3.75;1.08;;;8.50;98.70;;;;;;5011223;28;20042;-75
2022/02/16 00:54:52;;;;;;;2.20;1.13;;;8.50;98.70;;;;;;5011225;28;20360;-76
2022/02/16 00:57:18;;;;;;;2.70;1.15;;;8.50;98.70;;;;;;5011734;28;20055;-75
2022/02/16 00:59:44;;;;;;;3.40;1.00;;;8.60;98.80;;;;;;4993788;28;20026;-75
2022/02/16 01:02:09;;;;;;;2.88;1.38;;;8.60;98.70;;;;;;5011318;28;20026;-75
2022/02/16 01:04:35;;;;;;;2.90;1.13;;;8.60;98.80;;;;;;5011365;28;20030;-76
2022/02/16 01:07:01;;;;;;;1.75;0.85;;;8.60;98.90;;;;;;5011165;28;20145;-77
2022/02/16 01:09:27;;;;;;;3.78;1.00;;;8.60;98.80;;;;;;5011784;28;20073;-75
2022/02/16 01:11:53;;;;;;;3.30;0.80;;;8.60;98.70;;;;;;5011222;28;20030;-75
2022/02/16 01:14:19;;;;;;;3.83;1.13;;;8.60;98.70;;;;;;5011369;28;20038;-74
2022/02/16 01:16:44;;;;;;;2.25;1.05;;;8.70;98.80;;;;;;5011026;28;20045;-76
2022/02/16 01:19:10;;;;;;;1.92;0.85;;;8.70;98.70;;;;;;5010948;28;20455;-75
2022/02/16 01:21:36;;;;;;;4.15;0.90;;;8.60;98.80;;;;;;5010771;28;20037;-74
2022/02/16 01:24:02;;;;;;;1.23;0.90;;;8.60;98.90;;;;;;5011374;28;20100;-75
2022/02/16 01:26:28;;;;;;;1.17;0.68;;;8.70;98.70;;;;;;5010790;28;20044;-76
2022/02/16 01:28:53;;;;;;;2.15;0.98;;;8.70;98.90;;;;;;5010595;28;20057;-75
2022/02/16 01:31:19;;;;;;;2.10;0.77;;;8.70;98.80;;;;;;5010851;28;20447;-74
2022/02/16 01:33:45;;;;;;;1.40;0.80;;;8.70;98.90;;;;;;4993425;28;20422;-76
2022/02/16 01:36:12;;;;;;;2.05;0.93;;;8.70;98.80;;;;;;4994359;28;20025;-76
2022/02/16 01:38:38;;;;;;;3.25;0.65;;;8.70;98.80;;;;;;5010988;28;20026;-76
2022/02/16 01:41:04;;;;;;;3.25;1.00;;;8.70;98.80;;;;;;5010905;28;20516;-75
2022/02/16 01:43:30;;;;;;;6.72;1.08;;;8.70;98.80;;;;;;5010781;28;20046;-75
2022/02/16 01:45:56;;;;;;;1.13;0.73;;;8.70;98.80;;;;;;5010752;28;20121;-75
2022/02/16 01:48:22;;;;;;;1.67;0.80;;;8.80;98.90;;;;;;4993730;28;20037;-75
2022/02/16 01:50:48;;;;;;;4.22;0.85;;;8.80;98.90;;;;;;5010880;28;20034;-74
2022/02/16 01:53:14;;;;;;;2.70;0.80;;;8.90;98.80;;;;;;5010716;28;20087;-75
2022/02/16 01:55:40;;;;;;;1.63;0.60;;;8.80;98.80;;;;;;5013028;28;20033;-74
2022/02/16 01:58:08;;;;;;;1.35;0.75;;;8.80;98.90;;;;;;5014598;28;20033;-75
2022/02/16 02:00:33;;;;;;;2.22;1.00;;;8.80;99.00;;;;;;5015055;28;20034;-75
2022/02/16 02:02:59;;;;;;;0.60;0.45;;;8.80;99.10;;;;;;5014674;28;20048;-75
2022/02/16 02:05:25;;;;;;;2.20;1.13;;;8.80;99.10;;;;;;5014496;28;20128;-75
2022/02/16 02:07:51;;;;;;;1.08;0.55;;;8.80;99.10;;;;;;5014520;28;20136;-75
2022/02/16 02:10:16;;;;;;;1.48;0.50;;;8.80;99.10;;;;;;4997014;28;20041;-75
2022/02/16 02:12:54;;;;;;;4.15;0.80;;;8.80;99.10;;;;;;4996951;28;20037;-75
2022/02/16 02:15:21;;;;;;;;;;;8.80;99.10;;;;;;4998169;28;20370;-75
2022/02/16 02:17:47;;;;;;;3.35;0.70;;;8.80;99.20;;;;;;5014501;28;19909;-75
2022/02/16 02:20:23;;;;;;;3.63;1.00;;;8.80;99.30;;;;;;5014532;28;20456;-74
2022/02/16 02:22:50;;;;;;;2.78;0.50;;;8.80;99.10;;;;;;5014123;28;20049;-74
2022/02/16 02:25:16;;;;;;;2.63;1.02;;;8.80;99.10;;;;;;5014324;28;20053;-74
2022/02/16 02:27:42;;;;;;;1.80;0.70;;;8.80;99.20;;;;;;4996975;28;20123;-75
2022/02/16 02:30:09;;;;;;;1.70;0.75;;;8.80;99.10;;;;;;5014601;28;20467;-75
2022/02/16 02:32:34;;;;;;;2.20;0.50;;;8.80;99.10;;;;;;5014304;28;20037;-75
2022/02/16 02:35:00;;;;;;;2.60;0.57;;;8.80;99.10;;;;;;5014228;28;20045;-76
2022/02/16 02:37:26;;;;;;;2.78;0.60;;;8.80;99.10;;;;;;4996676;28;20038;-74
2022/02/16 02:39:51;;;;;;;2.17;0.80;;;8.80;99.10;;;;;;5014000;28;20040;-74
2022/02/16 02:42:17;;;;;;;0.75;0.50;;;8.80;99.10;;;;;;5014357;28;20462;-76
2022/02/16 02:44:43;;;;;;;3.30;0.68;;;8.80;99.20;;;;;;5013889;28;20053;-74
2022/02/16 02:47:08;;;;;;;2.35;0.70;;;8.80;99.20;;;;;;5013600;28;20034;-74
2022/02/16 02:49:35;;;;;;;1.20;0.70;;;8.80;99.30;;;;;;5013568;28;20026;-75
2022/02/16 02:52:01;;;;;;;0.65;0.60;;;8.80;99.20;;;;;;5013874;28;20053;-75
2022/02/16 02:54:27;;;;;;;0.50;0.50;;;8.80;99.20;;;;;;5014348;28;20053;-75
2022/02/16 02:56:52;;;;;;;4.93;0.73;;;8.80;99.20;;;;;;5013956;28;20118;-74
2022/02/16 02:59:18;;;;;;;1.38;0.60;;;8.90;99.20;;;;;;5013653;28;20033;-75
2022/02/16 03:01:43;;;;;;;0.73;0.60;;;8.80;99.30;;;;;;5013419;28;20045;-77
2022/02/16 03:04:09;;;;;;;1.45;0.82;;;8.80;99.30;;;;;;5013231;28;20136;-74
2022/02/16 03:06:35;;;;;;;1.05;0.47;;;8.90;99.40;;;;;;4996434;28;20021;-74
2022/02/16 03:09:00;;;;;;;2.58;0.73;;;8.90;99.40;;;;;;5013385;28;20030;-73
2022/02/16 03:11:27;;;;;;;0.65;0.57;;;8.80;99.50;;;;;;4995916;28;20036;-74
2022/02/16 03:13:53;;;;;;;2.90;0.65;;;8.80;99.50;;;;;;5013085;28;20046;-74
2022/02/16 03:16:18;;;;;;;2.10;0.60;;;8.90;99.60;;;;;;5013056;28;20034;-74
2022/02/16 03:18:44;;;;;;;0.70;0.50;;;8.90;99.60;;;;;;5012871;28;20444;-74
2022/02/16 03:21:09;;;;;;;2.45;0.70;;;8.80;99.60;;;;;;5013446;28;20026;-73
2022/02/16 03:23:35;;;;;;;2.00;0.65;;;8.80;99.70;;;;;;5012971;28;20486;-75
2022/02/16 03:26:01;;;;;;;0.65;0.60;;;8.80;99.70;;;;;;5013105;28;20029;-75
2022/02/16 03:28:26;;;;;;;1.15;0.70;;;8.80;99.70;;;;;;5012589;28;20097;-75
2022/02/16 03:30:52;;;;;;;2.60;0.70;;;8.80;99.80;;;;;;5012801;28;20072;-74
2022/02/16 03:33:18;;;;;;;1.73;0.43;;;8.90;99.80;;;;;;5013147;28;20061;-76
2022/02/16 03:35:43;;;;;;;3.47;0.68;;;8.80;99.70;;;;;;5012954;28;20034;-75
2022/02/16 03:38:09;;;;;;;1.17;0.95;;;8.80;99.70;;;;;;5012988;28;20538;-73
2022/02/16 03:40:35;;;;;;;1.35;0.47;;;8.80;99.80;;;;;;5012928;28;20030;-75
2022/02/16 03:43:00;;;;;;;1.02;0.65;;;8.70;99.70;;;;;;5012637;28;20141;-74
2022/02/16 03:45:27;;;;;;;3.45;0.70;;;8.80;99.70;;;;;;4995757;28;20050;-75
2022/02/16 03:47:54;;;;;;;1.38;0.60;;;8.80;99.70;;;;;;5012649;28;20030;-75
2022/02/16 03:50:22;;;;;;;1.45;0.70;;;8.80;99.60;;;;;;4995057;28;20518;-75
2022/02/16 03:52:50;;;;;;;3.30;0.52;;;8.80;99.50;;;;;;5012338;28;20180;-75
2022/02/16 03:55:16;;;;;;;4.40;0.98;;;8.80;99.50;;;;;;5012513;28;20036;-75
2022/02/16 03:57:42;;;;;;;3.70;0.80;;;8.80;99.60;;;;;;5012443;28;20105;-73
2022/02/16 04:00:09;;;;;;;0.70;0.70;;;8.80;99.50;;;;;;5012950;28;20061;-74
2022/02/16 04:02:35;;;;;;;0.47;0.47;;;8.80;99.50;;;;;;4995293;28;20056;-73
2022/02/16 04:05:01;;;;;;;2.47;0.90;;;8.80;99.50;;;;;;5012314;28;20109;-74
2022/02/16 04:07:26;;;;;;;0.98;0.70;;;8.90;99.50;;;;;;5012820;28;20136;-74
2022/02/16 04:09:52;;;;;;;0.77;0.70;;;8.90;99.50;;;;;;5014930;28;20029;-75
2022/02/16 04:12:18;;;;;;;0.80;0.70;;;8.80;99.70;;;;;;4998478;28;20022;-74
2022/02/16 04:14:43;;;;;;;2.05;0.80;;;8.80;99.60;;;;;;5015214;28;20040;-75
2022/02/16 04:17:09;;;;;;;3.72;1.00;;;8.80;99.70;;;;;;5013646;28;20030;-73
2022/02/16 04:19:34;;;;;;;0.90;0.70;;;8.80;99.80;;;;;;5014654;28;20345;-74
2022/02/16 04:22:00;;;;;;;0.47;0.47;;;8.80;99.80;;;;;;5012881;28;20042;-74
2022/02/16 04:24:25;;;;;;;2.45;0.47;;;8.80;99.80;;;;;;5012658;28;20037;-74
2022/02/16 04:26:51;;;;;;;0.70;0.60;;;8.80;99.90;;;;;;5012258;28;20056;-73
2022/02/16 04:29:17;;;;;;;1.75;0.68;;;8.90;99.90;;;;;;5011770;28;20058;-74
2022/02/16 04:31:43;;;;;;;1.35;0.60;;;8.90;99.90;;;;;;4994813;28;20459;-74
2022/02/16 04:34:08;;;;;;;1.50;1.00;;;8.90;99.90;;;;;;5012000;28;20452;-74
2022/02/16 04:36:34;;;;;;;1.75;0.68;;;8.90;99.90;;;;;;5012431;28;20021;-74
2022/02/16 04:39:00;;;;;;;3.65;0.75;;;8.90;99.90;;;;;;5012081;28;20088;-74
2022/02/16 04:41:26;;;;;;;2.15;0.80;;;8.90;99.90;;;;;;5011762;28;20100;-74
2022/02/16 04:43:52;;;;;;;1.88;0.77;;;9.00;99.90;;;;;;5011753;28;20038;-75
2022/02/16 04:46:18;;;;;;;2.22;0.50;;;8.90;99.90;;;;;;4994263;28;20308;-74
2022/02/16 04:48:44;;;;;;;0.95;0.60;;;8.90;99.90;;;;;;5011831;28;20440;-74
2022/02/16 04:51:10;;;;;;;0.93;0.60;;;8.90;99.90;;;;;;5012069;28;20526;-75
2022/02/16 04:53:36;;;;;;;1.83;0.85;;;8.90;99.90;;;;;;5011373;28;20472;-75
2022/02/16 04:56:04;;;;;;;1.05;0.80;;;8.90;99.90;;;;;;4994115;28;20468;-75
2022/02/16 04:58:30;;;;;;;1.33;0.68;;;8.90;99.90;;;;;;5011491;28;20464;-75
2022/02/16 05:00:55;;;;;;;2.83;0.75;;;8.90;99.90;;;;;;5011362;28;20042;-74
2022/02/16 05:03:21;;;;;;;2.95;0.73;;;8.90;99.90;;;;;;5011921;28;20347;-75
2022/02/16 05:05:47;;;;;;;1.25;0.63;;;8.90;99.90;;;;;;5011398;28;20052;-75
2022/02/16 05:08:12;;;;;;;1.02;0.65;;;8.90;99.90;;;;;;5011438;28;20124;-75
2022/02/16 05:10:38;;;;;;;1.30;0.52;;;8.90;99.90;;;;;;5011246;28;20392;-75
2022/02/16 05:13:06;;;;;;;1.58;0.75;;;8.90;99.90;;;;;;5011014;28;20125;-75
2022/02/16 05:15:31;;;;;;;0.75;0.55;;;8.90;99.90;;;;;;4994024;28;20443;-76
2022/02/16 05:17:57;;;;;;;1.00;0.60;;;8.90;99.90;;;;;;5011155;28;20057;-75
2022/02/16 05:20:23;;;;;;;0.80;0.75;;;8.90;99.90;;;;;;5011163;28;20104;-74
2022/02/16 05:22:48;;;;;;;2.17;0.70;;;8.90;99.90;;;;;;5011054;28;20026;-74
2022/02/16 05:25:14;;;;;;;2.55;0.50;;;9.00;99.90;;;;;;5010994;28;20041;-74
2022/02/16 05:27:39;;;;;;;2.17;1.00;;;8.90;99.90;;;;;;5011138;28;20398;-75
2022/02/16 05:30:05;;;;;;;0.93;0.60;;;9.00;99.90;;;;;;4993675;28;20042;-75
2022/02/16 05:32:32;;;;;;;1.13;0.70;;;8.90;99.90;;;;;;4993465;28;20113;-75
2022/02/16 05:34:58;;;;;;;1.42;0.85;;;9.00;99.90;;;;;;5010968;28;20026;-75
2022/02/16 05:37:23;;;;;;;4.93;1.08;;;8.90;99.90;;;;;;5010806;28;20037;-75
2022/02/16 05:39:49;;;;;;;3.53;0.73;;;8.90;99.90;;;;;;5010854;28;20459;-74
2022/02/16 05:42:15;;;;;;;5.00;1.00;;;8.90;99.90;;;;;;4994345;28;20034;-75
2022/02/16 05:44:41;;;;;;;0.70;0.60;;;8.90;99.90;;;;;;5010808;28;20364;-74
2022/02/16 05:47:07;;;;;;;2.92;0.85;;;8.90;99.90;;;;;;5010937;28;20060;-73
2022/02/16 05:49:33;;;;;;;1.80;0.95;;;8.90;99.90;;;;;;4994143;28;20061;-74
2022/02/16 05:51:59;;;;;;;1.35;0.80;;;8.90;99.90;;;;;;4993483;28;20042;-76
2022/02/16 05:54:26;;;;;;;1.67;0.70;;;8.90;99.90;;;;;;5011173;28;20060;-75
2022/02/16 05:56:51;;;;;;;1.48;0.77;;;9.00;99.90;;;;;;5010598;28;20117;-75
2022/02/16 05:59:17;;;;;;;1.40;0.82;;;8.90;99.90;;;;;;5010639;28;20109;-74
2022/02/16 06:01:43;;;;;;;0.95;0.77;;;8.90;99.90;;;;;;4993011;28;20460;-74
2022/02/16 06:04:10;;;;;;;1.50;0.90;;;8.90;99.90;;;;;;5010401;28;20033;-75
2022/02/16 06:06:36;;;;;;;2.58;0.80;;;8.90;99.90;;;;;;4993532;28;20041;-74
2022/02/16 06:09:02;;;;;;;0.95;0.65;;;9.00;99.90;;;;;;5010979;28;20065;-74
2022/02/16 06:11:28;;;;;;;0.80;0.50;;;8.90;99.90;;;;;;5010569;28;20030;-75
2022/02/16 06:13:54;;;;;;;1.75;0.82;;;9.00;99.90;;;;;;4992970;28;20111;-75
2022/02/16 06:16:19;;;;;;;1.35;0.77;;;9.00;99.90;;;;;;5010519;28;20057;-75
2022/02/16 06:18:45;;;;;;;0.85;0.60;;;8.90;99.90;;;;;;5010570;28;20036;-75
2022/02/16 06:21:11;;;;;;;1.17;0.63;;;8.90;99.90;;;;;;4993452;28;20037;-76
2022/02/16 06:23:37;;;;;;;1.02;0.60;;;9.00;99.90;;;;;;5010340;28;20170;-74
2022/02/16 06:26:02;;;;;;;0.75;0.68;;;9.00;99.90;;;;;;5010536;28;20033;-75
2022/02/16 06:28:28;;;;;;;1.52;0.90;;;9.10;99.90;;;;;;5010090;28;20400;-75
2022/02/16 06:30:55;;;;;;;1.92;0.75;;;9.10;99.90;;;;;;5009400;28;20041;-76
2022/02/16 06:33:20;;;;;;;1.40;0.80;;;9.10;99.90;;;;;;5009748;28;20036;-75
2022/02/16 06:35:46;;;;;;;2.72;0.90;;;9.10;99.90;;;;;;5008447;28;20038;-75
2022/02/16 06:38:12;;;;;;;0.85;0.68;;;9.10;99.90;;;;;;5009622;28;20030;-74
2022/02/16 06:40:38;;;;;;;1.85;0.90;;;9.10;99.90;;;;;;5010256;28;20030;-76
2022/02/16 06:43:04;;;;;;;1.30;0.73;;;9.10;99.90;;;;;;4995552;28;20334;-75
2022/02/16 06:45:29;;;;;;;2.25;0.93;;;9.10;99.90;;;;;;5013488;28;20037;-78
2022/02/16 06:47:55;;;;;;;1.02;0.70;;;9.10;99.90;;;;;;5013050;28;20287;-76
2022/02/16 06:50:21;;;;;;;1.33;0.90;;;9.10;99.90;;;;;;5012902;28;20065;-79
2022/02/16 06:52:46;;;;;;;2.45;0.57;;;9.10;99.90;;;;;;5012658;28;20451;-76
2022/02/16 06:55:12;;;;;;;0.98;0.80;;;9.10;99.90;;;;;;4995236;28;20041;-75
2022/02/16 06:57:38;;;;;;;1.33;1.10;;;9.10;99.90;;;;;;5012557;28;20033;-75
2022/02/16 07:00:06;;;;;;;1.85;0.90;;;9.20;99.90;;;;;;5012883;28;20034;-75
2022/02/16 07:02:31;;;;;;;2.95;1.42;;;9.20;99.90;;;;;;5012443;28;20034;-75
2022/02/16 07:04:58;;;;;;;2.90;1.10;;;9.20;99.90;;;;;;5012596;28;20432;-76
2022/02/16 07:07:26;;;;;;;1.38;0.80;;;9.20;99.90;;;;;;5012673;28;20030;-76
2022/02/16 07:09:51;;;;;;;3.47;0.90;;;9.20;99.90;;;;;;5012786;28;20030;-76
2022/02/16 07:12:17;;;;;;;2.13;0.70;;;9.20;99.90;;;;;;5012772;28;20037;-76
2022/02/16 07:14:42;;;;;;;1.42;0.85;;;9.30;99.90;;;;;;4994762;28;20033;-76
2022/02/16 07:17:08;;;;;;;1.88;0.88;;;9.30;99.90;;;;;;5011139;28;20044;-74
2022/02/16 07:19:34;;;;;;;1.75;0.70;;;9.20;99.90;;;;;;5012262;28;20061;-78
2022/02/16 07:21:59;;;;;;;1.30;0.80;;;9.30;99.90;;;;;;5012067;28;20096;-77
2022/02/16 07:24:25;;;;;;;1.67;0.75;;;9.30;99.90;;;;;;5012327;28;20026;-73
2022/02/16 07:26:51;;;;;;;2.25;0.90;;;9.40;99.90;;;;;;5011854;28;20033;-74
2022/02/16 07:29:17;;;;;;;0.70;0.60;;;9.40;99.90;;;;;;4974028;28;1096399;-77
2022/02/16 07:31:43;;;;;;;2.97;0.88;;;9.40;99.90;;;;;;5013194;28;20506;-76
2022/02/16 07:34:08;;;;;;;0.95;0.70;;;9.50;99.90;;;;;;5012677;28;20180;-76
2022/02/16 07:36:34;;;;;;;0.77;0.65;;;9.50;99.90;;;;;;5013297;28;20045;-77
2022/02/16 07:39:01;;;;;;;1.42;0.80;;;9.50;99.90;;;;;;5012565;28;20038;-76
2022/02/16 07:41:28;;;;;;;1.27;0.85;;;9.50;99.90;;;;;;5012893;28;20499;-75
2022/02/16 07:43:53;;;;;;;3.90;1.70;;;9.50;99.90;;;;;;5012225;28;20045;-74
2022/02/16 07:46:19;;;;;;;3.95;1.98;;;9.40;99.90;;;;;;5012439;28;20033;-74
2022/02/16 07:48:45;;;;;;;3.35;0.80;;;9.50;99.90;;;;;;5012421;28;20131;-73
2022/02/16 07:51:11;;;;;;;1.20;0.85;;;9.40;99.90;;;;;;5012677;28;20371;-76
2022/02/16 07:53:38;;;;;;;6.15;2.70;;;9.40;99.90;;;;;;5011631;28;20042;-76
2022/02/16 07:56:05;;;;;;;1.30;1.05;;;9.40;99.90;;;;;;5012355;28;20483;-76
2022/02/16 07:58:31;;;;;;;4.57;0.93;;;9.40;99.90;;;;;;5012190;28;20107;-75
2022/02/16 08:00:56;;;;;;;0.95;0.73;;;9.40;99.90;;;;;;5012340;28;20068;-76
2022/02/16 08:03:22;;;;;;;1.95;0.80;;;9.30;99.90;;;;;;5012806;28;20026;-76
2022/02/16 08:05:48;;;;;;;1.50;0.73;;;9.20;99.90;;;;;;4995038;28;20038;-76
2022/02/16 08:08:14;;;;;;;3.28;0.70;;;9.20;99.90;;;;;;5012272;28;20046;-76
2022/02/16 08:10:39;;;;;;;0.60;0.60;;;9.20;99.90;;;;;;4994575;28;20029;-75
2022/02/16 08:13:05;;;;;;;2.10;0.60;;;9.20;99.90;;;;;;5011817;28;20455;-75
2022/02/16 08:15:32;;;;;;;3.00;0.70;;;9.20;99.90;;;;;;5012470;28;20038;-74
2022/02/16 08:17:58;;;;;;;3.65;0.80;;;9.20;99.90;;;;;;5012033;28;20053;-76
2022/02/16 08:20:24;;;;;;;1.48;0.80;;;9.20;99.90;;;;;;5011855;28;20538;-82
2022/02/16 08:22:50;;;;;;;0.93;0.60;;;9.20;99.90;;;;;;5011864;28;20065;-76
2022/02/16 08:25:16;;;;;;;0.98;0.55;;;9.20;99.90;;;;;;5011898;28;20109;-76
2022/02/16 08:27:42;;;;;;;2.78;0.90;;;9.20;99.90;;;;;;5011671;28;20100;-75
2022/02/16 08:30:10;;;;;;;1.33;0.60;;;9.20;99.90;;;;;;4991385;28;20046;-74
2022/02/16 08:32:37;;;;;;;0.90;0.77;;;9.30;99.90;;;;;;4992325;28;20118;-74
2022/02/16 08:35:08;;;;;;;1.48;0.63;;;9.30;99.90;;;;;;4992371;28;20050;-74
2022/02/16 08:37:35;;;;;;;0.40;0.38;;;9.30;99.90;;;;;;4991716;28;20034;-77
2022/02/16 08:40:02;;;;;;;0.40;0.40;;;9.40;99.90;;;;;;4992544;28;20341;-78
2022/02/16 08:42:28;;;;;;;1.23;0.70;;;9.40;99.90;;;;;;4991850;28;20041;-75
2022/02/16 08:44:56;;;;;;;1.17;0.55;;;9.40;99.90;;;;;;4992066;28;20406;-76
2022/02/16 08:47:22;;;;;;;3.85;1.17;;;9.40;99.90;;;;;;4992137;28;20038;-75
2022/02/16 08:49:48;;;;;;;2.78;1.52;;;9.40;99.90;;;;;;4992300;28;20033;-75
2022/02/16 08:52:14;;;;;;;1.05;0.70;;;9.50;99.90;;;;;;4991993;28;20034;-76
2022/02/16 08:54:40;;;;;;;1.63;0.60;;;9.50;99.90;;;;;;4992341;28;20039;-77
2022/02/16 08:57:07;;;;;;;1.20;0.57;;;9.60;99.90;;;;;;4992611;28;20416;-75
2022/02/16 08:59:33;;;;;;;1.98;0.55;;;9.50;99.90;;;;;;4990807;28;20030;-76
2022/02/16 09:01:59;;;;;;;1.27;0.32;;;9.60;99.90;;;;;;4991869;28;20035;-77
2022/02/16 09:04:26;;;;;;;1.42;0.60;;;9.50;99.90;;;;;;4991746;28;20081;-75
2022/02/16 09:09:40;;;;;;;3.38;0.45;;;9.60;99.90;;;;;;4991773;28;20032;-73
2022/02/16 09:12:07;;;;;;;0.55;0.30;;;9.60;99.90;;;;;;4992043;28;20029;-76
2022/02/16 09:14:34;;;;;;;0.90;0.47;;;9.60;99.90;;;;;;4991441;28;20042;-74
2022/02/16 09:17:00;;;;;;;0.75;0.40;;;9.70;99.90;;;;;;4991608;28;20034;-75
2022/02/16 09:19:26;;;;;;;0.40;0.40;;;9.70;99.90;;;;;;4991864;28;20338;-76
2022/02/16 09:21:52;;;;;;;5.75;2.03;;;9.80;99.90;;;;;;4992140;28;20109;-74
2022/02/16 09:24:18;;;;;;;2.58;0.80;;;9.70;99.90;;;;;;4992170;28;20029;-75
2022/02/16 09:26:44;;;;;;;1.00;0.50;;;9.70;99.90;;;;;;4991907;28;20142;-77
2022/02/16 09:29:10;;;;;;;1.08;0.40;;;9.70;99.90;;;;;;4991017;28;20445;-75
2022/02/16 09:31:36;;;;;;;0.47;0.43;;;9.70;99.90;;;;;;4992107;28;20122;-75
2022/02/16 09:34:03;;;;;;;4.57;0.50;;;9.70;99.90;;;;;;4991401;28;20497;-73
2022/02/16 09:36:31;;;;;;;0.60;0.43;;;9.80;99.90;;;;;;4990668;28;20475;-75
2022/02/16 09:38:57;;;;;;;0.90;0.40;;;9.80;99.90;;;;;;4990330;28;20039;-75
2022/02/16 09:41:23;;;;;;;2.30;0.50;;;9.80;99.90;;;;;;4991908;28;20035;-75
2022/02/16 09:43:50;;;;;;;1.02;0.45;;;9.80;99.90;;;;;;4991708;28;20038;-76
2022/02/16 09:46:17;;;;;;;4.28;2.75;;;9.90;99.90;;;;;;4991679;28;20045;-74
2022/02/16 09:48:43;;;;;;;1.00;0.57;;;9.90;99.90;;;;;;4990936;28;20117;-77
2022/02/16 09:51:18;;;;;;;1.73;0.60;;;10.00;99.90;;;;;;4991370;28;20181;-75
2022/02/16 09:53:45;;;;;;;0.70;0.43;;;10.00;99.90;;;;;;4990624;28;20046;-77
2022/02/16 09:56:11;;;;;;;0.20;0.20;;;9.90;99.90;;;;;;4992367;28;20030;-76
2022/02/16 09:58:37;;;;;;;0.50;0.40;;;10.00;99.90;;;;;;4992464;28;20049;-77
2022/02/16 10:01:11;;;;;;;0.77;0.30;;;10.00;99.90;;;;;;4991985;28;20026;-75
2022/02/16 10:03:37;;;;;;;1.00;0.52;;;10.00;99.90;;;;;;4992351;28;20038;-75
2022/02/16 10:06:03;;;;;;;1.45;0.60;;;10.10;99.90;;;;;;4992148;28;20053;-75
2022/02/16 10:09:02;;;;;;;0.38;0.28;;;10.20;99.90;;;;;;4990293;28;20053;-74
2022/02/16 10:11:28;;;;;;;0.75;0.38;;;10.20;99.90;;;;;;4959186;28;20086;-77
2022/02/16 10:14:17;;;;;;;0.50;0.50;;;10.20;99.90;;;;;;4991663;28;20061;-75
2022/02/16 10:16:43;;;;;;;0.20;0.20;;;10.20;99.90;;;;;;4994046;28;20034;-76
2022/02/16 10:19:09;;;;;;;0.38;0.20;;;10.30;99.90;;;;;;4995320;28;20061;-74
2022/02/16 10:21:35;;;;;;;1.10;0.40;;;10.30;99.90;;;;;;4996714;28;20030;-77
2022/02/16 10:24:01;;;;;;;0.68;0.32;;;10.40;99.90;;;;;;4995056;28;20035;-76
2022/02/16 10:26:50;;;;;;;1.90;0.63;;;10.30;99.90;;;;;;4994567;28;20046;-77
2022/02/16 10:29:21;;;;;;;0.95;0.52;;;10.40;99.90;;;;;;5004680;28;20053;-79
2022/02/16 10:31:47;;;;;;;1.38;0.38;;;10.40;99.90;;;;;;5015382;28;20037;-76
2022/02/16 10:34:14;;;;;;;0.50;0.22;;;10.40;99.90;;;;;;5014281;28;20089;-80
2022/02/16 10:36:40;;;;;;;0.50;0.40;;;10.40;99.90;;;;;;5014019;28;20022;-72
2022/02/16 10:39:10;;;;;;;2.35;0.57;;;10.40;99.90;;;;;;5014601;28;20084;-75
2022/02/16 10:41:50;;;;;;;0.57;0.45;;;10.50;99.90;;;;;;5014331;28;20057;-74
2022/02/16 10:44:20;;;;;;;0.38;0.25;;;10.50;99.90;;;;;;5015569;28;20054;-77
2022/02/16 10:47:00;;;;;;;0.75;0.30;;;10.50;99.90;;;;;;5013945;28;20467;-78
2022/02/16 10:49:26;;;;;;;0.50;0.35;;;10.50;99.90;;;;;;5015280;28;20056;-78
2022/02/16 10:52:08;;;;;;;0.95;0.57;;;10.50;99.90;;;;;;5016534;28;20459;-75
2022/02/16 10:54:34;;;;;;;0.68;0.50;;;10.60;99.90;;;;;;5016656;28;20446;-79
2022/02/16 10:57:00;;;;;;;0.55;0.38;;;10.60;99.90;;;;;;5016710;28;20034;-75
2022/02/16 10:59:26;;;;;;;0.40;0.40;;;10.70;99.90;;;;;;5016435;28;20049;-77
2022/02/16 11:01:53;;;;;;;0.85;0.60;;;10.70;99.90;;;;;;5015667;28;20049;-75
2022/02/16 11:04:20;;;;;;;0.20;0.20;;;10.80;99.90;;;;;;5015052;28;20049;-75
2022/02/16 11:06:48;;;;;;;1.63;0.50;;;10.80;99.90;;;;;;5014495;28;20104;-76
2022/02/16 11:09:22;;;;;;;0.93;0.60;;;10.80;99.90;;;;;;5016158;28;20145;-79
2022/02/16 11:11:51;;;;;;;0.50;0.32;;;10.90;99.90;;;;;;5015660;28;20026;-78
2022/02/16 11:14:18;;;;;;;1.48;0.40;;;10.90;99.90;;;;;;4998015;28;20476;-77
2022/02/16 11:16:48;;;;;;;2.90;1.23;;;11.00;99.90;;;;;;5015715;28;20080;-76
2022/02/16 11:19:22;;;;;;;3.53;0.77;;;11.10;99.90;;;;;;5015169;28;20260;-77
2022/02/16 11:22:09;;;;;;;1.90;1.38;;;11.10;99.90;;;;;;4997208;28;20026;-77
2022/02/16 11:24:38;;;;;;;3.42;1.38;;;11.20;99.90;;;;;;5015511;28;20033;-76
2022/02/16 11:27:26;;;;;;;0.40;0.30;;;11.30;99.90;;;;;;4997234;28;20038;-76
2022/02/16 11:29:53;;;;;;;0.17;0.17;;;11.40;99.90;;;;;;5013823;28;20045;-76
2022/02/16 11:32:30;;;;;;;0.22;0.22;;;11.40;99.90;;;;;;5013962;28;20117;-77
2022/02/16 11:35:26;;;;;;;1.23;0.40;;;11.50;99.90;;;;;;5014627;28;20104;-78
2022/02/16 11:38:12;;;;;;;0.95;0.50;;;11.50;99.90;;;;;;5015175;28;20080;-77
2022/02/16 11:40:42;;;;;;;0.60;0.40;;;11.60;99.90;;;;;;5000218;28;20034;-75
2022/02/16 11:43:10;;;;;;;1.85;0.30;;;11.70;99.90;;;;;;5021579;28;20026;-76
2022/02/16 11:45:50;;;;;;;2.80;0.50;;;11.70;99.90;;;;;;5028180;28;20010;-75
2022/02/16 11:48:38;;;;;;;0.65;0.43;;;11.80;99.90;;;;;;5028839;28;20042;-76
2022/02/16 11:51:33;;;;;;;3.28;0.40;;;11.80;99.90;;;;;;5028444;28;20044;-75
2022/02/16 11:54:57;;;;;;;1.55;0.38;;;11.90;99.90;;;;;;5017176;28;20061;-76
2022/02/16 11:57:32;;;;;;;0.52;0.32;;;11.90;99.90;;;;;;4917511;29;20043;-76
2022/02/16 12:00:19;;;;;;;0.52;0.35;;;12.00;99.90;;;;;;5005375;28;20501;-78
2022/02/16 12:03:02;;;;;;;0.60;0.37;;;12.00;99.90;;;;;;4989903;28;20375;-76
2022/02/16 12:05:56;;;;;;;0.73;0.40;;;12.10;99.90;;;;;;5019296;28;20444;-75
2022/02/16 12:08:39;;;;;;;0.65;0.50;;;12.10;99.90;;;;;;5018587;28;20527;-75
2022/02/16 12:11:30;;;;;;;0.40;0.40;;;12.20;99.90;;;;;;5015852;28;20106;-73
2022/02/16 12:14:05;;;;;;;0.40;0.40;;;12.20;99.90;;;;;;5017052;28;20037;-75
2022/02/16 12:16:42;;;;;;;3.30;0.70;;;12.20;99.90;;;;;;5013020;28;20073;-75
2022/02/16 12:19:15;;;;;;;0.68;0.52;;;12.30;99.90;;;;;;4995509;28;20034;-74
2022/02/16 12:21:54;;;;;;;0.47;0.47;;;12.30;99.90;;;;;;5011750;28;20022;-72
2022/02/16 12:24:24;;;;;;;0.30;0.30;;;12.40;99.90;;;;;;5012519;28;20452;-74
2022/02/16 12:26:52;;;;;;;0.43;0.40;;;12.40;99.90;;;;;;5011962;28;20049;-75
2022/02/16 12:29:21;;;;;;;0.73;0.63;;;12.40;99.90;;;;;;5011837;28;20045;-76
2022/02/16 12:31:52;;;;;;;0.50;0.50;;;12.40;99.90;;;;;;5011950;28;20033;-76
2022/02/16 12:34:21;;;;;;;0.65;0.60;;;12.40;99.90;;;;;;5011668;28;20030;-75
2022/02/16 12:36:50;;;;;;;1.42;0.77;;;12.50;99.90;;;;;;5011613;28;20501;-76
2022/02/16 12:39:15;;;;;;;0.60;0.60;;;12.50;99.90;;;;;;5011543;28;20037;-75
2022/02/16 12:41:42;;;;;;;2.35;0.60;;;12.40;99.90;;;;;;5011689;28;20392;-74
2022/02/16 12:44:13;;;;;;;0.43;0.38;;;12.40;99.90;;;;;;5011564;28;20145;-75
2022/02/16 12:46:42;;;;;;;3.03;1.13;;;12.50;99.90;;;;;;5011756;28;20121;-74
2022/02/16 12:49:17;;;;;;;2.22;1.10;;;12.50;99.90;;;;;;5012198;28;20432;-75
2022/02/16 12:51:45;;;;;;;3.05;0.65;;;12.50;99.90;;;;;;5012737;28;20049;-77
2022/02/16 12:54:24;;;;;;;0.80;0.50;;;12.50;99.90;;;;;;5012820;28;20036;-75
2022/02/16 12:57:03;;;;;;;2.58;0.70;;;12.50;99.90;;;;;;5012823;28;20026;-75
2022/02/16 12:59:30;;;;;;;0.52;0.50;;;12.50;99.90;;;;;;5012521;28;20026;-74
2022/02/16 13:01:59;;;;;;;0.75;0.40;;;12.50;99.90;;;;;;5012362;28;20053;-75